createdAt,value
2019-03-27T00:02:42.256Z,1.60
2019-03-27T00:07:43.830Z,1.70
2019-03-27T00:12:45.351Z,1.60
2019-03-27T00:17:47.238Z,1.50
2019-03-27T00:22:48.716Z,1.50
2019-03-27T00:27:50.174Z,1.50
2019-03-27T00:32:51.691Z,1.50
2019-03-27T00:37:53.550Z,1.40
2019-03-27T00:42:55.440Z,1.40
2019-03-27T00:47:56.993Z,1.40
2019-03-27T00:52:58.474Z,1.30
2019-03-27T00:58:00.238Z,1.20
2019-03-27T01:03:03.662Z,1.10
2019-03-27T01:08:05.369Z,0.90
2019-03-27T01:13:06.991Z,0.80
2019-03-27T01:18:08.865Z,0.80
2019-03-27T01:23:10.335Z,0.80
2019-03-27T01:28:11.809Z,0.80
2019-03-27T01:33:13.377Z,0.80
2019-03-27T01:38:14.985Z,0.70
2019-03-27T01:43:16.519Z,0.60
2019-03-27T01:48:18.150Z,0.70
2019-03-27T01:53:19.935Z,0.70
2019-03-27T01:58:21.661Z,0.60
2019-03-27T02:03:23.189Z,0.80
2019-03-27T02:08:25.036Z,0.70
2019-03-27T02:13:26.500Z,0.80
2019-03-27T02:18:28.266Z,0.70
2019-03-27T02:23:29.794Z,0.70
2019-03-27T02:28:31.560Z,0.60
2019-03-27T02:33:33.115Z,0.60
2019-03-27T02:38:34.606Z,0.70
2019-03-27T02:43:36.543Z,0.80
2019-03-27T02:48:38.271Z,0.70
2019-03-27T02:53:39.900Z,0.70
2019-03-27T02:58:41.973Z,0.60
2019-03-27T03:03:43.522Z,0.60
2019-03-27T03:08:45.004Z,0.70
2019-03-27T03:13:46.855Z,0.80
2019-03-27T03:18:48.627Z,0.70
2019-03-27T03:23:50.414Z,0.90
2019-03-27T03:28:52.262Z,1.10
2019-03-27T03:33:53.765Z,1.20
2019-03-27T03:38:55.644Z,1.30
2019-03-27T03:43:57.107Z,1.30
2019-03-27T03:48:58.650Z,1.50
2019-03-27T03:54:00.108Z,1.70
2019-03-27T03:59:02.187Z,1.70
2019-03-27T04:04:04.005Z,1.80
2019-03-27T04:09:06.261Z,1.70
2019-03-27T04:14:07.754Z,1.90
2019-03-27T04:19:09.354Z,2.00
2019-03-27T04:24:10.834Z,2.10
2019-03-27T04:29:12.382Z,2.20
2019-03-27T04:34:14.220Z,2.30
2019-03-27T04:39:15.786Z,2.40
2019-03-27T04:44:17.255Z,2.50
2019-03-27T04:49:19.313Z,2.60
2019-03-27T04:54:20.797Z,2.70
2019-03-27T04:59:22.323Z,2.70
2019-03-27T05:04:24.656Z,2.70
2019-03-27T05:09:26.127Z,2.90
2019-03-27T05:14:28.003Z,2.90
2019-03-27T05:19:29.477Z,3.00
2019-03-27T05:24:31.053Z,3.20
2019-03-27T05:29:32.534Z,3.40
2019-03-27T05:34:34.011Z,3.50
2019-03-27T05:39:35.550Z,3.50
2019-03-27T05:44:37.230Z,3.60
2019-03-27T05:49:38.893Z,3.80
2019-03-27T05:54:40.871Z,3.90
2019-03-27T05:59:42.456Z,4.00
2019-03-27T06:04:43.934Z,4.00
2019-03-27T06:09:45.480Z,4.10
2019-03-27T06:14:46.953Z,4.30
2019-03-27T06:19:48.535Z,4.50
2019-03-27T06:24:50.450Z,4.60
2019-03-27T06:29:51.905Z,4.70
2019-03-27T06:34:55.422Z,4.80
2019-03-27T06:39:56.887Z,5.00
2019-03-27T06:44:58.672Z,5.10
2019-03-27T06:50:00.453Z,5.30
2019-03-27T06:55:03.466Z,5.40
2019-03-27T07:00:09.603Z,5.50
2019-03-27T07:05:11.485Z,5.60
2019-03-27T07:10:13.485Z,5.60
2019-03-27T07:15:14.959Z,5.80
2019-03-27T07:20:16.452Z,5.90
2019-03-27T07:25:18.106Z,6.00
2019-03-27T07:30:19.792Z,6.10
2019-03-27T07:35:21.362Z,6.20
2019-03-27T07:40:22.824Z,6.50
2019-03-27T07:45:24.301Z,6.60
2019-03-27T07:50:26.229Z,6.90
2019-03-27T07:55:28.033Z,7.10
2019-03-27T08:00:29.622Z,7.00
2019-03-27T08:05:31.133Z,7.30
2019-03-27T08:10:32.609Z,7.20
2019-03-27T08:15:34.081Z,7.30
2019-03-27T08:20:35.597Z,7.30
2019-03-27T08:25:37.211Z,7.50
2019-03-27T08:30:39.002Z,7.70
2019-03-27T08:35:40.478Z,7.80
2019-03-27T08:40:41.972Z,8.10
2019-03-27T08:45:43.526Z,8.50
2019-03-27T08:50:45.151Z,8.60
2019-03-27T08:55:46.633Z,8.40
2019-03-27T09:00:52.293Z,8.50
2019-03-27T09:05:54.070Z,8.10
2019-03-27T09:10:55.549Z,8.30
2019-03-27T09:15:57.029Z,8.10
2019-03-27T09:20:58.498Z,8.30
2019-03-27T09:25:59.994Z,8.60
2019-03-27T09:31:01.458Z,8.40
2019-03-27T09:36:03.529Z,8.40
2019-03-27T09:41:05.127Z,8.70
2019-03-27T09:46:06.801Z,8.70
2019-03-27T09:51:08.727Z,8.50
2019-03-27T09:56:19.009Z,8.30
2019-03-27T10:01:13.571Z,8.80
2019-03-27T10:06:15.038Z,8.70
2019-03-27T10:11:16.620Z,8.80
2019-03-27T10:16:18.340Z,9.30
2019-03-27T10:21:20.462Z,9.40
2019-03-27T10:26:22.335Z,9.10
2019-03-27T10:31:23.860Z,9.00
2019-03-27T10:36:25.438Z,9.20
2019-03-27T10:41:27.078Z,8.90
2019-03-27T10:46:28.558Z,8.70
2019-03-27T10:51:30.489Z,8.90
2019-03-27T10:56:38.734Z,9.00
2019-03-27T11:01:40.552Z,9.10
2019-03-27T11:06:42.011Z,8.90
2019-03-27T11:11:43.927Z,9.20
2019-03-27T11:16:45.692Z,9.30
2019-03-27T11:21:47.194Z,9.20
2019-03-27T11:26:48.835Z,9.20
2019-03-27T11:31:50.718Z,9.40
2019-03-27T11:36:52.179Z,9.30
2019-03-27T11:41:53.861Z,9.60
2019-03-27T11:46:55.340Z,9.90
2019-03-27T11:51:57.290Z,9.90
2019-03-27T11:56:58.864Z,9.90
2019-03-27T12:02:00.342Z,9.50
2019-03-27T12:07:01.814Z,9.50
2019-03-27T12:12:03.379Z,9.40
2019-03-27T12:17:04.870Z,9.40
2019-03-27T12:22:06.487Z,9.50
2019-03-27T12:27:07.968Z,9.50
2019-03-27T12:32:09.440Z,9.50
2019-03-27T12:37:11.309Z,9.60
2019-03-27T12:42:12.805Z,9.50
2019-03-27T12:47:14.650Z,9.50
2019-03-27T12:52:16.735Z,9.40
2019-03-27T12:57:18.710Z,9.70
2019-03-27T13:02:20.690Z,9.90
2019-03-27T13:07:22.562Z,9.80
2019-03-27T13:12:24.031Z,9.60
2019-03-27T13:17:25.649Z,9.70
2019-03-27T13:22:27.476Z,9.50
2019-03-27T13:27:28.933Z,9.60
2019-03-27T13:32:30.400Z,9.50
2019-03-27T13:37:31.879Z,9.60
2019-03-27T13:42:33.646Z,9.70
2019-03-27T13:47:35.351Z,9.70
2019-03-27T13:52:36.872Z,9.80
2019-03-27T13:57:38.424Z,9.90
2019-03-27T14:02:39.911Z,10.00
2019-03-27T14:07:41.900Z,10.10
2019-03-27T14:12:43.392Z,10.20
2019-03-27T14:17:44.980Z,9.90
2019-03-27T14:22:46.456Z,9.90
2019-03-27T14:27:47.970Z,9.80
2019-03-27T14:32:49.441Z,9.60
2019-03-27T14:37:50.902Z,9.60
2019-03-27T14:42:52.365Z,9.70
2019-03-27T14:47:53.971Z,9.70
2019-03-27T14:52:55.551Z,9.90
2019-03-27T14:57:57.022Z,9.70
2019-03-27T15:02:58.576Z,9.60
2019-03-27T15:08:00.422Z,9.40
2019-03-27T15:13:02.004Z,9.40
2019-03-27T15:18:03.490Z,9.40
2019-03-27T15:23:04.959Z,9.50
2019-03-27T15:28:06.459Z,9.50
2019-03-27T15:33:07.946Z,9.80
2019-03-27T15:38:09.418Z,9.80
2019-03-27T15:43:11.303Z,9.90
2019-03-27T15:48:13.169Z,9.70
2019-03-27T15:53:14.644Z,9.60
2019-03-27T15:58:16.114Z,9.70
2019-03-27T16:03:18.157Z,9.80
2019-03-27T16:08:20.166Z,9.70
2019-03-27T16:13:21.635Z,9.80
2019-03-27T16:18:23.408Z,9.70
2019-03-27T16:23:24.867Z,9.70
2019-03-27T16:28:26.369Z,9.60
2019-03-27T16:33:28.223Z,9.60
2019-03-27T16:38:29.704Z,9.60
2019-03-27T16:43:31.553Z,9.50
2019-03-27T16:48:33.429Z,9.50
2019-03-27T16:53:34.909Z,9.40
2019-03-27T16:58:36.875Z,9.40
2019-03-27T17:03:38.353Z,9.40
2019-03-27T17:08:39.988Z,9.30
2019-03-27T17:13:41.477Z,9.30
2019-03-27T17:18:43.355Z,9.40
2019-03-27T17:23:45.123Z,9.40
2019-03-27T17:28:46.679Z,9.50
2019-03-27T17:33:48.466Z,9.50
2019-03-27T17:38:50.393Z,9.40
2019-03-27T17:43:51.952Z,9.50
2019-03-27T17:48:53.580Z,9.40
2019-03-27T17:53:55.050Z,9.30
2019-03-27T17:58:56.567Z,9.40
2019-03-27T18:03:58.044Z,9.50
2019-03-27T18:08:59.858Z,9.40
2019-03-27T18:14:01.347Z,9.70
2019-03-27T18:19:03.224Z,9.80
2019-03-27T18:24:04.921Z,9.80
2019-03-27T18:29:06.410Z,9.80
2019-03-27T18:34:08.285Z,10.00
2019-03-27T18:39:09.923Z,9.60
2019-03-27T18:44:11.618Z,9.60
2019-03-27T18:49:13.282Z,9.50
2019-03-27T18:54:15.334Z,9.50
2019-03-27T18:59:17.132Z,9.40
2019-03-27T19:04:19.286Z,9.40
2019-03-27T19:09:21.264Z,9.40
2019-03-27T19:14:22.851Z,9.30
2019-03-27T19:19:24.831Z,9.30
2019-03-27T19:24:26.873Z,9.20
2019-03-27T19:29:28.394Z,9.10
2019-03-27T19:34:30.349Z,9.10
2019-03-27T19:39:31.937Z,9.00
2019-03-27T19:44:33.597Z,9.00
2019-03-27T19:49:35.321Z,9.00
2019-03-27T19:54:37.209Z,9.00
2019-03-27T19:59:38.724Z,9.00
2019-03-27T20:04:40.299Z,9.00
2019-03-27T20:09:41.839Z,9.00
2019-03-27T20:14:43.462Z,8.90
2019-03-27T20:19:45.249Z,8.80
2019-03-27T20:24:46.718Z,8.70
2019-03-27T20:29:48.275Z,8.70
2019-03-27T20:34:49.793Z,8.60
2019-03-27T20:39:51.642Z,8.50
2019-03-27T20:44:53.106Z,8.50
2019-03-27T20:49:54.697Z,8.50
2019-03-27T20:54:56.351Z,8.40
2019-03-27T20:59:57.941Z,8.40
2019-03-27T21:04:59.417Z,8.40
2019-03-27T21:10:00.890Z,8.40
2019-03-27T21:15:05.567Z,8.30
2019-03-27T21:20:07.597Z,8.40
2019-03-27T21:25:09.990Z,8.40
2019-03-27T21:30:13.452Z,8.40
2019-03-27T21:35:15.260Z,8.30
2019-03-27T21:40:17.616Z,8.40
2019-03-27T21:45:19.601Z,8.40
2019-03-27T21:50:21.471Z,8.50
2019-03-27T21:55:23.329Z,8.40
2019-03-27T22:00:38.950Z,8.40
2019-03-27T22:05:40.725Z,8.40
2019-03-27T22:10:42.206Z,8.50
2019-03-27T22:15:43.661Z,8.40
2019-03-27T22:20:45.626Z,8.40
2019-03-27T22:25:47.107Z,8.40
2019-03-27T22:30:48.575Z,8.40
2019-03-27T22:35:50.048Z,8.40
2019-03-27T22:40:51.907Z,8.40
2019-03-27T22:45:53.406Z,8.30
2019-03-27T22:50:55.237Z,8.40
2019-03-27T22:55:56.708Z,8.40
2019-03-27T23:00:58.257Z,8.30
2019-03-27T23:05:59.735Z,8.30
2019-03-27T23:11:02.181Z,8.30
2019-03-27T23:16:03.670Z,8.30
2019-03-27T23:21:05.213Z,8.30
2019-03-27T23:26:06.831Z,8.30
2019-03-27T23:31:08.763Z,8.30
2019-03-27T23:36:10.334Z,8.30
2019-03-27T23:41:11.915Z,8.30
2019-03-27T23:46:13.798Z,8.30
2019-03-27T23:51:15.362Z,8.30
2019-03-27T23:56:17.264Z,8.30
